sensor_id;sensor_type;location;lat;lon;timestamp;pressure;altitude;pressure_sealevel;temperature;humidity
9423;BME280;65863;49.506;10.400;2023-04-20T00:01:05;98062.34;;;-0.09;85.55
9423;BME280;65863;49.506;10.400;2023-04-20T00:03:49;98062.69;;;-0.02;85.55
9423;BME280;65863;49.506;10.400;2023-04-20T00:06:34;98039.50;;;-0.10;85.80
9423;BME280;65863;49.506;10.400;2023-04-20T00:09:18;98063.50;;;0.20;86.28
9423;BME280;65863;49.506;10.400;2023-04-20T00:12:03;98042.09;;;0.14;86.13
9423;BME280;65863;49.506;10.400;2023-04-20T00:14:47;98055.50;;;0.42;86.20
9423;BME280;65863;49.506;10.400;2023-04-20T00:17:31;98059.66;;;0.53;86.38
9423;BME280;65863;49.506;10.400;2023-04-20T00:20:15;98026.91;;;0.45;86.50
9423;BME280;65863;49.506;10.400;2023-04-20T00:22:59;98024.03;;;0.55;86.32
9423;BME280;65863;49.506;10.400;2023-04-20T00:25:43;98019.97;;;0.50;86.26
9423;BME280;65863;49.506;10.400;2023-04-20T00:28:28;98033.19;;;0.66;86.40
9423;BME280;65863;49.506;10.400;2023-04-20T00:31:12;98001.59;;;0.26;86.34
9423;BME280;65863;49.506;10.400;2023-04-20T00:33:57;98008.47;;;0.37;86.36
9423;BME280;65863;49.506;10.400;2023-04-20T00:36:41;98007.19;;;0.32;86.58
9423;BME280;65863;49.506;10.400;2023-04-20T00:39:25;97992.25;;;0.24;86.30
9423;BME280;65863;49.506;10.400;2023-04-20T00:42:09;97983.00;;;0.27;86.55
9423;BME280;65863;49.506;10.400;2023-04-20T00:44:53;98008.91;;;0.50;86.64
9423;BME280;65863;49.506;10.400;2023-04-20T00:47:39;97997.38;;;0.51;86.45
9423;BME280;65863;49.506;10.400;2023-04-20T00:50:23;98003.72;;;0.58;86.56
9423;BME280;65863;49.506;10.400;2023-04-20T00:53:07;98016.59;;;0.87;86.56
9423;BME280;65863;49.506;10.400;2023-04-20T00:55:51;97983.69;;;0.63;86.52
9423;BME280;65863;49.506;10.400;2023-04-20T00:58:36;98007.75;;;0.83;86.52
9423;BME280;65863;49.506;10.400;2023-04-20T01:01:20;98001.72;;;0.84;86.83
9423;BME280;65863;49.506;10.400;2023-04-20T01:04:04;97982.31;;;0.79;86.76
9423;BME280;65863;49.506;10.400;2023-04-20T01:06:50;97980.59;;;0.81;86.54
9423;BME280;65863;49.506;10.400;2023-04-20T01:09:36;97996.00;;;0.88;86.53
9423;BME280;65863;49.506;10.400;2023-04-20T01:12:23;97988.28;;;0.72;86.36
9423;BME280;65863;49.506;10.400;2023-04-20T01:15:08;97981.66;;;0.63;86.41
9423;BME280;65863;49.506;10.400;2023-04-20T01:17:52;97996.44;;;0.81;86.34
9423;BME280;65863;49.506;10.400;2023-04-20T01:20:37;97923.97;;;0.45;86.50
9423;BME280;65863;49.506;10.400;2023-04-20T01:23:21;97953.59;;;0.71;86.01
9423;BME280;65863;49.506;10.400;2023-04-20T01:26:07;97999.31;;;0.92;86.05
9423;BME280;65863;49.506;10.400;2023-04-20T01:28:51;97971.44;;;0.70;85.78
9423;BME280;65863;49.506;10.400;2023-04-20T01:31:35;97977.66;;;0.64;85.71
9423;BME280;65863;49.506;10.400;2023-04-20T01:34:20;97940.03;;;0.46;85.88
9423;BME280;65863;49.506;10.400;2023-04-20T01:37:04;97972.13;;;0.64;85.87
9423;BME280;65863;49.506;10.400;2023-04-20T01:39:51;97966.88;;;0.66;85.83
9423;BME280;65863;49.506;10.400;2023-04-20T01:42:38;97977.78;;;0.76;86.09
9423;BME280;65863;49.506;10.400;2023-04-20T01:45:22;97939.69;;;0.59;86.14
9423;BME280;65863;49.506;10.400;2023-04-20T01:48:08;97986.38;;;0.83;86.27
9423;BME280;65863;49.506;10.400;2023-04-20T01:50:52;97978.03;;;0.78;86.26
9423;BME280;65863;49.506;10.400;2023-04-20T01:53:36;97958.25;;;0.59;86.13
9423;BME280;65863;49.506;10.400;2023-04-20T01:56:20;97976.53;;;0.77;85.99
9423;BME280;65863;49.506;10.400;2023-04-20T01:59:04;97930.19;;;0.40;86.01
9423;BME280;65863;49.506;10.400;2023-04-20T02:01:48;97948.41;;;0.52;85.70
9423;BME280;65863;49.506;10.400;2023-04-20T02:04:32;97938.19;;;0.38;86.19
9423;BME280;65863;49.506;10.400;2023-04-20T02:07:17;97929.53;;;0.24;86.15
9423;BME280;65863;49.506;10.400;2023-04-20T02:10:02;97936.56;;;0.25;85.80
9423;BME280;65863;49.506;10.400;2023-04-20T02:12:47;97941.38;;;0.10;86.20
9423;BME280;65863;49.506;10.400;2023-04-20T02:15:31;97946.41;;;0.11;86.02
9423;BME280;65863;49.506;10.400;2023-04-20T02:18:15;97912.16;;;-0.03;86.40
9423;BME280;65863;49.506;10.400;2023-04-20T02:21:00;97928.56;;;0.07;86.17
9423;BME280;65863;49.506;10.400;2023-04-20T02:23:44;97932.56;;;0.06;86.20
9423;BME280;65863;49.506;10.400;2023-04-20T02:26:28;97949.81;;;0.01;86.70
9423;BME280;65863;49.506;10.400;2023-04-20T02:29:11;97887.72;;;-0.51;86.27
9423;BME280;65863;49.506;10.400;2023-04-20T02:31:56;97966.22;;;0.10;86.90
9423;BME280;65863;49.506;10.400;2023-04-20T02:34:40;97919.72;;;0.03;87.13
9423;BME280;65863;49.506;10.400;2023-04-20T02:37:24;97956.84;;;0.43;87.17
9423;BME280;65863;49.506;10.400;2023-04-20T02:40:08;97962.31;;;0.63;87.66
9423;BME280;65863;49.506;10.400;2023-04-20T02:42:53;97927.97;;;0.44;87.54
9423;BME280;65863;49.506;10.400;2023-04-20T02:45:37;97919.47;;;0.47;87.54
9423;BME280;65863;49.506;10.400;2023-04-20T02:48:22;97917.31;;;0.57;87.90
9423;BME280;65863;49.506;10.400;2023-04-20T02:51:06;97936.97;;;0.65;87.57
9423;BME280;65863;49.506;10.400;2023-04-20T02:53:56;97901.69;;;0.28;87.77
9423;BME280;65863;49.506;10.400;2023-04-20T02:56:44;97930.72;;;0.44;87.96
9423;BME280;65863;49.506;10.400;2023-04-20T02:59:28;97882.97;;;0.38;87.85
9423;BME280;65863;49.506;10.400;2023-04-20T03:02:32;97889.09;;;0.47;87.68
9423;BME280;65863;49.506;10.400;2023-04-20T03:05:17;97898.53;;;0.61;88.06
9423;BME280;65863;49.506;10.400;2023-04-20T03:08:01;97893.19;;;0.58;88.07
9423;BME280;65863;49.506;10.400;2023-04-20T03:10:47;97944.19;;;0.83;88.22
9423;BME280;65863;49.506;10.400;2023-04-20T03:13:35;97931.50;;;0.97;88.14
9423;BME280;65863;49.506;10.400;2023-04-20T03:16:19;97901.66;;;0.75;88.34
9423;BME280;65863;49.506;10.400;2023-04-20T03:19:07;97873.56;;;0.50;88.04
9423;BME280;65863;49.506;10.400;2023-04-20T03:21:51;97885.59;;;0.47;88.10
9423;BME280;65863;49.506;10.400;2023-04-20T03:24:35;97883.78;;;0.44;88.38
9423;BME280;65863;49.506;10.400;2023-04-20T03:27:28;97883.34;;;0.51;88.69
9423;BME280;65863;49.506;10.400;2023-04-20T03:30:22;97904.44;;;0.48;88.75
9423;BME280;65863;49.506;10.400;2023-04-20T03:33:11;97878.72;;;0.16;89.11
9423;BME280;65863;49.506;10.400;2023-04-20T03:35:55;97877.41;;;0.11;89.28
9423;BME280;65863;49.506;10.400;2023-04-20T03:38:39;97863.97;;;-0.02;89.56
9423;BME280;65863;49.506;10.400;2023-04-20T03:41:23;97874.88;;;0.08;89.87
9423;BME280;65863;49.506;10.400;2023-04-20T03:44:07;97808.06;;;-0.43;89.71
9423;BME280;65863;49.506;10.400;2023-04-20T03:46:51;97865.56;;;0.05;90.19
9423;BME280;65863;49.506;10.400;2023-04-20T03:49:35;97863.22;;;0.19;90.28
9423;BME280;65863;49.506;10.400;2023-04-20T03:52:19;97851.63;;;0.14;90.26
9423;BME280;65863;49.506;10.400;2023-04-20T03:55:04;97873.34;;;0.27;90.32
9423;BME280;65863;49.506;10.400;2023-04-20T03:57:48;97873.88;;;0.31;90.84
9423;BME280;65863;49.506;10.400;2023-04-20T04:00:33;97884.56;;;0.44;91.02
9423;BME280;65863;49.506;10.400;2023-04-20T04:03:25;97854.69;;;0.22;91.09
9423;BME280;65863;49.506;10.400;2023-04-20T04:06:09;97903.06;;;0.64;90.88
9423;BME280;65863;49.506;10.400;2023-04-20T04:08:53;97880.75;;;0.42;91.04
9423;BME280;65863;49.506;10.400;2023-04-20T04:11:37;97860.22;;;0.22;91.10
9423;BME280;65863;49.506;10.400;2023-04-20T04:14:22;97864.69;;;0.20;91.39
9423;BME280;65863;49.506;10.400;2023-04-20T04:17:06;97877.44;;;0.38;91.69
9423;BME280;65863;49.506;10.400;2023-04-20T04:19:52;97863.78;;;0.28;91.69
9423;BME280;65863;49.506;10.400;2023-04-20T04:22:36;97892.28;;;0.40;91.81
9423;BME280;65863;49.506;10.400;2023-04-20T04:25:39;97895.91;;;0.52;92.10
9423;BME280;65863;49.506;10.400;2023-04-20T04:28:28;97840.50;;;0.09;92.07
9423;BME280;65863;49.506;10.400;2023-04-20T04:31:30;97884.38;;;0.27;92.22
9423;BME280;65863;49.506;10.400;2023-04-20T04:34:21;97904.81;;;0.36;92.22
9423;BME280;65863;49.506;10.400;2023-04-20T04:37:09;97893.34;;;0.22;92.30
9423;BME280;65863;49.506;10.400;2023-04-20T04:40:01;97874.06;;;0.02;92.78
9423;BME280;65863;49.506;10.400;2023-04-20T04:42:52;97873.59;;;0.29;92.93
9423;BME280;65863;49.506;10.400;2023-04-20T04:45:37;97882.75;;;0.41;92.89
9423;BME280;65863;49.506;10.400;2023-04-20T04:48:26;97864.88;;;0.37;93.04
9423;BME280;65863;49.506;10.400;2023-04-20T04:51:11;97907.91;;;0.70;93.12
9423;BME280;65863;49.506;10.400;2023-04-20T04:53:55;97876.56;;;0.52;93.42
9423;BME280;65863;49.506;10.400;2023-04-20T04:56:39;97874.25;;;0.45;93.46
9423;BME280;65863;49.506;10.400;2023-04-20T04:59:23;97879.06;;;0.50;93.34
9423;BME280;65863;49.506;10.400;2023-04-20T05:02:13;97874.31;;;0.50;93.38
9423;BME280;65863;49.506;10.400;2023-04-20T05:04:57;97886.75;;;0.66;93.81
9423;BME280;65863;49.506;10.400;2023-04-20T05:07:41;97890.34;;;0.73;93.54
9423;BME280;65863;49.506;10.400;2023-04-20T05:10:25;97857.88;;;0.67;93.81
9423;BME280;65863;49.506;10.400;2023-04-20T05:13:09;97858.47;;;0.77;93.75
9423;BME280;65863;49.506;10.400;2023-04-20T05:15:53;97883.63;;;1.17;93.64
9423;BME280;65863;49.506;10.400;2023-04-20T05:18:37;97879.47;;;1.33;93.61
9423;BME280;65863;49.506;10.400;2023-04-20T05:21:21;97899.84;;;2.56;94.62
9423;BME280;65863;49.506;10.400;2023-04-20T05:24:05;97909.13;;;3.77;94.11
9423;BME280;65863;49.506;10.400;2023-04-20T05:26:48;97905.53;;;4.53;93.55
9423;BME280;65863;49.506;10.400;2023-04-20T05:29:33;97892.31;;;5.31;91.95
9423;BME280;65863;49.506;10.400;2023-04-20T05:32:17;97887.66;;;5.89;89.29
9423;BME280;65863;49.506;10.400;2023-04-20T05:35:01;97909.00;;;6.30;85.92
9423;BME280;65863;49.506;10.400;2023-04-20T05:37:45;97906.81;;;6.23;82.93
9423;BME280;65863;49.506;10.400;2023-04-20T05:40:30;97854.25;;;6.65;79.88
9423;BME280;65863;49.506;10.400;2023-04-20T05:43:14;97872.47;;;7.31;75.78
9423;BME280;65863;49.506;10.400;2023-04-20T05:46:00;97865.97;;;7.41;72.41
9423;BME280;65863;49.506;10.400;2023-04-20T05:48:44;97851.88;;;7.61;69.79
9423;BME280;65863;49.506;10.400;2023-04-20T05:51:34;97884.25;;;8.57;67.61
9423;BME280;65863;49.506;10.400;2023-04-20T05:54:17;97881.16;;;8.34;64.95
9423;BME280;65863;49.506;10.400;2023-04-20T05:57:01;97866.06;;;8.85;64.17
9423;BME280;65863;49.506;10.400;2023-04-20T05:59:47;97874.69;;;9.87;61.71
9423;BME280;65863;49.506;10.400;2023-04-20T06:02:32;97887.22;;;9.57;59.94
9423;BME280;65863;49.506;10.400;2023-04-20T06:05:17;97887.50;;;9.75;59.46
9423;BME280;65863;49.506;10.400;2023-04-20T06:08:01;97891.75;;;9.18;58.47
9423;BME280;65863;49.506;10.400;2023-04-20T06:10:45;97899.91;;;9.87;58.60
9423;BME280;65863;49.506;10.400;2023-04-20T06:13:29;97884.34;;;9.50;58.78
9423;BME280;65863;49.506;10.400;2023-04-20T06:16:13;97878.81;;;10.30;58.21
9423;BME280;65863;49.506;10.400;2023-04-20T06:18:57;97882.13;;;10.58;57.15
9423;BME280;65863;49.506;10.400;2023-04-20T06:21:41;97883.91;;;9.95;56.64
9423;BME280;65863;49.506;10.400;2023-04-20T06:24:25;97877.38;;;11.05;56.34
9423;BME280;65863;49.506;10.400;2023-04-20T06:27:11;97845.25;;;11.85;54.72
9423;BME280;65863;49.506;10.400;2023-04-20T06:29:55;97913.72;;;11.95;53.42
9423;BME280;65863;49.506;10.400;2023-04-20T06:32:39;97888.78;;;11.53;53.32
9423;BME280;65863;49.506;10.400;2023-04-20T06:35:23;97885.19;;;10.91;52.36
9423;BME280;65863;49.506;10.400;2023-04-20T06:38:08;97870.94;;;11.89;54.01
9423;BME280;65863;49.506;10.400;2023-04-20T06:40:52;97873.25;;;12.39;52.56
9423;BME280;65863;49.506;10.400;2023-04-20T06:43:35;97897.47;;;12.75;51.50
9423;BME280;65863;49.506;10.400;2023-04-20T06:46:19;97889.88;;;11.88;50.93
9423;BME280;65863;49.506;10.400;2023-04-20T06:49:03;97838.59;;;11.26;51.45
9423;BME280;65863;49.506;10.400;2023-04-20T06:51:48;97844.47;;;10.38;52.40
9423;BME280;65863;49.506;10.400;2023-04-20T06:54:32;97893.59;;;10.31;53.75
9423;BME280;65863;49.506;10.400;2023-04-20T06:57:16;97870.66;;;10.04;55.22
9423;BME280;65863;49.506;10.400;2023-04-20T07:00:00;97871.97;;;9.74;55.76
9423;BME280;65863;49.506;10.400;2023-04-20T07:02:49;97841.84;;;9.67;56.49
9423;BME280;65863;49.506;10.400;2023-04-20T07:05:35;97893.59;;;9.16;56.70
9423;BME280;65863;49.506;10.400;2023-04-20T07:08:19;97876.81;;;8.60;57.99
9423;BME280;65863;49.506;10.400;2023-04-20T07:11:03;97881.03;;;8.53;59.79
9423;BME280;65863;49.506;10.400;2023-04-20T07:13:47;97876.72;;;8.39;60.01
9423;BME280;65863;49.506;10.400;2023-04-20T07:16:31;97880.66;;;8.22;60.91
9423;BME280;65863;49.506;10.400;2023-04-20T07:19:15;97884.97;;;7.83;61.41
9423;BME280;65863;49.506;10.400;2023-04-20T07:21:59;97889.94;;;8.04;63.01
9423;BME280;65863;49.506;10.400;2023-04-20T07:24:43;97871.34;;;7.66;62.63
9423;BME280;65863;49.506;10.400;2023-04-20T07:27:27;97875.84;;;7.83;63.66
9423;BME280;65863;49.506;10.400;2023-04-20T07:30:13;97880.25;;;7.51;63.75
9423;BME280;65863;49.506;10.400;2023-04-20T07:32:57;97855.88;;;7.79;64.75
9423;BME280;65863;49.506;10.400;2023-04-20T07:35:41;97875.63;;;7.94;64.25
9423;BME280;65863;49.506;10.400;2023-04-20T07:38:25;97908.97;;;7.79;64.15
9423;BME280;65863;49.506;10.400;2023-04-20T07:41:09;97905.09;;;7.68;64.67
9423;BME280;65863;49.506;10.400;2023-04-20T07:43:53;97876.69;;;7.51;65.60
9423;BME280;65863;49.506;10.400;2023-04-20T07:46:38;97909.78;;;7.47;65.60
9423;BME280;65863;49.506;10.400;2023-04-20T07:49:22;97893.56;;;6.99;65.60
9423;BME280;65863;49.506;10.400;2023-04-20T07:52:06;97895.38;;;6.97;67.23
9423;BME280;65863;49.506;10.400;2023-04-20T07:54:51;97897.78;;;6.87;67.63
9423;BME280;65863;49.506;10.400;2023-04-20T07:57:40;97865.09;;;6.68;67.73
9423;BME280;65863;49.506;10.400;2023-04-20T08:00:25;97912.44;;;6.74;68.33
9423;BME280;65863;49.506;10.400;2023-04-20T08:03:09;97908.38;;;6.37;68.59
9423;BME280;65863;49.506;10.400;2023-04-20T08:05:53;97847.06;;;5.74;68.85
9423;BME280;65863;49.506;10.400;2023-04-20T08:08:37;97908.31;;;6.43;69.79
9423;BME280;65863;49.506;10.400;2023-04-20T08:11:21;97897.25;;;6.37;70.30
9423;BME280;65863;49.506;10.400;2023-04-20T08:14:07;97876.88;;;6.23;70.46
9423;BME280;65863;49.506;10.400;2023-04-20T08:16:50;97864.69;;;6.45;70.64
9423;BME280;65863;49.506;10.400;2023-04-20T08:19:34;97886.69;;;6.68;69.76
9423;BME280;65863;49.506;10.400;2023-04-20T08:22:19;97892.94;;;7.06;70.06
9423;BME280;65863;49.506;10.400;2023-04-20T08:25:04;97866.72;;;6.96;69.35
9423;BME280;65863;49.506;10.400;2023-04-20T08:27:48;97871.84;;;7.24;69.19
9423;BME280;65863;49.506;10.400;2023-04-20T08:30:32;97854.03;;;6.95;67.64
9423;BME280;65863;49.506;10.400;2023-04-20T08:33:16;97900.94;;;7.29;67.97
9423;BME280;65863;49.506;10.400;2023-04-20T08:36:00;97862.22;;;7.06;67.19
9423;BME280;65863;49.506;10.400;2023-04-20T08:38:44;97863.94;;;7.10;67.64
9423;BME280;65863;49.506;10.400;2023-04-20T08:41:28;97873.00;;;7.29;67.70
9423;BME280;65863;49.506;10.400;2023-04-20T08:44:12;97856.16;;;7.48;67.05
9423;BME280;65863;49.506;10.400;2023-04-20T08:46:56;97853.56;;;8.17;67.06
9423;BME280;65863;49.506;10.400;2023-04-20T08:49:40;97867.97;;;8.08;64.70
9423;BME280;65863;49.506;10.400;2023-04-20T08:52:27;97855.69;;;8.24;65.06
9423;BME280;65863;49.506;10.400;2023-04-20T08:55:15;97873.88;;;8.66;64.34
9423;BME280;65863;49.506;10.400;2023-04-20T08:57:59;97832.22;;;8.41;64.15
9423;BME280;65863;49.506;10.400;2023-04-20T09:00:49;97847.78;;;8.36;63.18
9423;BME280;65863;49.506;10.400;2023-04-20T09:03:39;97859.75;;;8.37;63.22
9423;BME280;65863;49.506;10.400;2023-04-20T09:06:24;97835.69;;;8.20;62.54
9423;BME280;65863;49.506;10.400;2023-04-20T09:09:09;97872.13;;;8.76;62.57
9423;BME280;65863;49.506;10.400;2023-04-20T09:12:05;97874.06;;;9.02;61.89
9423;BME280;65863;49.506;10.400;2023-04-20T09:14:50;97863.25;;;9.27;61.30
9423;BME280;65863;49.506;10.400;2023-04-20T09:17:35;97845.06;;;9.42;60.77
9423;BME280;65863;49.506;10.400;2023-04-20T09:20:40;97860.59;;;9.79;60.07
9423;BME280;65863;49.506;10.400;2023-04-20T09:23:24;97838.34;;;9.74;59.02
9423;BME280;65863;49.506;10.400;2023-04-20T09:26:16;97851.31;;;9.85;58.49
9423;BME280;65863;49.506;10.400;2023-04-20T09:29:02;97852.91;;;10.01;57.40
9423;BME280;65863;49.506;10.400;2023-04-20T09:31:47;97843.53;;;9.98;57.87
9423;BME280;65863;49.506;10.400;2023-04-20T09:34:41;97824.53;;;10.20;58.43
9423;BME280;65863;49.506;10.400;2023-04-20T09:37:25;97818.09;;;10.41;57.15
9423;BME280;65863;49.506;10.400;2023-04-20T09:40:10;97830.09;;;10.49;55.74
9423;BME280;65863;49.506;10.400;2023-04-20T09:42:58;97806.50;;;10.37;53.98
9423;BME280;65863;49.506;10.400;2023-04-20T09:45:43;97831.38;;;10.40;53.05
9423;BME280;65863;49.506;10.400;2023-04-20T09:48:27;97795.28;;;9.92;52.11
9423;BME280;65863;49.506;10.400;2023-04-20T09:51:11;97788.19;;;9.55;50.37
9423;BME280;65863;49.506;10.400;2023-04-20T09:53:56;97777.38;;;9.67;51.41
9423;BME280;65863;49.506;10.400;2023-04-20T09:56:40;97794.97;;;9.67;50.42
9423;BME280;65863;49.506;10.400;2023-04-20T09:59:25;97768.97;;;9.59;51.30
9423;BME280;65863;49.506;10.400;2023-04-20T10:02:10;97747.56;;;9.77;50.93
9423;BME280;65863;49.506;10.400;2023-04-20T10:04:56;97797.69;;;9.88;49.68
9423;BME280;65863;49.506;10.400;2023-04-20T10:07:41;97826.94;;;10.08;49.94
9423;BME280;65863;49.506;10.400;2023-04-20T10:10:26;97834.97;;;10.04;50.02
9423;BME280;65863;49.506;10.400;2023-04-20T10:13:10;97817.59;;;9.69;50.64
9423;BME280;65863;49.506;10.400;2023-04-20T10:15:54;97809.50;;;9.94;51.51
9423;BME280;65863;49.506;10.400;2023-04-20T10:18:38;97785.94;;;9.90;51.34
9423;BME280;65863;49.506;10.400;2023-04-20T10:21:22;97772.66;;;9.90;50.91
9423;BME280;65863;49.506;10.400;2023-04-20T10:24:06;97758.94;;;9.71;50.32
9423;BME280;65863;49.506;10.400;2023-04-20T10:26:50;97712.28;;;9.45;50.57
9423;BME280;65863;49.506;10.400;2023-04-20T10:29:34;97757.50;;;9.93;49.54
9423;BME280;65863;49.506;10.400;2023-04-20T10:32:27;97773.56;;;10.37;49.84
9423;BME280;65863;49.506;10.400;2023-04-20T10:35:11;97782.06;;;10.83;48.85
9423;BME280;65863;49.506;10.400;2023-04-20T10:37:57;97768.66;;;10.30;47.99
9423;BME280;65863;49.506;10.400;2023-04-20T10:40:41;97791.72;;;10.51;48.54
9423;BME280;65863;49.506;10.400;2023-04-20T10:43:25;97783.91;;;11.12;49.40
9423;BME280;65863;49.506;10.400;2023-04-20T10:46:17;97776.59;;;10.85;48.30
9423;BME280;65863;49.506;10.400;2023-04-20T10:49:01;97743.47;;;10.53;48.29
9423;BME280;65863;49.506;10.400;2023-04-20T10:51:47;97743.47;;;10.84;49.83
9423;BME280;65863;49.506;10.400;2023-04-20T10:54:36;97707.19;;;10.71;49.08
9423;BME280;65863;49.506;10.400;2023-04-20T10:57:21;97747.22;;;10.87;49.69
9423;BME280;65863;49.506;10.400;2023-04-20T11:00:16;97761.06;;;11.08;49.96
9423;BME280;65863;49.506;10.400;2023-04-20T11:03:00;97704.56;;;10.57;49.46
9423;BME280;65863;49.506;10.400;2023-04-20T11:05:49;97724.38;;;10.82;49.74
9423;BME280;65863;49.506;10.400;2023-04-20T11:08:40;97728.84;;;11.24;49.91
9423;BME280;65863;49.506;10.400;2023-04-20T11:11:26;97736.72;;;11.18;48.04
9423;BME280;65863;49.506;10.400;2023-04-20T11:14:11;97714.66;;;10.76;48.85
9423;BME280;65863;49.506;10.400;2023-04-20T11:16:56;97706.78;;;10.90;49.30
9423;BME280;65863;49.506;10.400;2023-04-20T11:19:40;97691.47;;;10.52;48.30
9423;BME280;65863;49.506;10.400;2023-04-20T11:22:24;97695.56;;;10.36;48.44
9423;BME280;65863;49.506;10.400;2023-04-20T11:25:09;97721.38;;;10.34;49.04
9423;BME280;65863;49.506;10.400;2023-04-20T11:28:04;97701.50;;;10.16;49.30
9423;BME280;65863;49.506;10.400;2023-04-20T11:30:50;97713.47;;;10.17;49.53
9423;BME280;65863;49.506;10.400;2023-04-20T11:33:35;97714.63;;;10.29;50.62
9423;BME280;65863;49.506;10.400;2023-04-20T11:36:23;97719.84;;;10.25;51.50
9423;BME280;65863;49.506;10.400;2023-04-20T11:39:07;97718.66;;;9.97;51.44
9423;BME280;65863;49.506;10.400;2023-04-20T11:41:53;97714.34;;;9.96;51.71
9423;BME280;65863;49.506;10.400;2023-04-20T11:44:37;97687.53;;;9.72;52.28
9423;BME280;65863;49.506;10.400;2023-04-20T11:47:24;97700.19;;;9.58;52.52
9423;BME280;65863;49.506;10.400;2023-04-20T11:50:08;97707.53;;;9.69;53.44
9423;BME280;65863;49.506;10.400;2023-04-20T11:52:52;97709.16;;;9.56;53.65
9423;BME280;65863;49.506;10.400;2023-04-20T11:55:36;97698.28;;;9.45;54.22
9423;BME280;65863;49.506;10.400;2023-04-20T11:58:20;97696.19;;;9.38;54.99
9423;BME280;65863;49.506;10.400;2023-04-20T12:01:04;97706.03;;;9.23;55.15
9423;BME280;65863;49.506;10.400;2023-04-20T12:03:48;97710.41;;;9.11;55.73
9423;BME280;65863;49.506;10.400;2023-04-20T12:06:32;97731.22;;;9.23;55.95
9423;BME280;65863;49.506;10.400;2023-04-20T12:09:16;97685.72;;;8.73;56.04
9423;BME280;65863;49.506;10.400;2023-04-20T12:12:00;97707.53;;;8.95;56.47
9423;BME280;65863;49.506;10.400;2023-04-20T12:14:44;97677.72;;;8.77;57.38
9423;BME280;65863;49.506;10.400;2023-04-20T12:17:28;97697.25;;;8.90;57.52
9423;BME280;65863;49.506;10.400;2023-04-20T12:20:12;97722.22;;;9.17;58.22
9423;BME280;65863;49.506;10.400;2023-04-20T12:22:56;97664.97;;;8.68;58.33
9423;BME280;65863;49.506;10.400;2023-04-20T12:25:41;97689.00;;;8.85;58.71
9423;BME280;65863;49.506;10.400;2023-04-20T12:28:25;97685.59;;;9.07;59.28
9423;BME280;65863;49.506;10.400;2023-04-20T12:31:10;97711.63;;;9.23;59.07
9423;BME280;65863;49.506;10.400;2023-04-20T12:33:54;97707.38;;;9.30;59.41
9423;BME280;65863;49.506;10.400;2023-04-20T12:36:38;97702.31;;;9.00;59.52
9423;BME280;65863;49.506;10.400;2023-04-20T12:39:22;97692.38;;;8.91;59.97
9423;BME280;65863;49.506;10.400;2023-04-20T12:42:09;97693.53;;;8.95;60.13
9423;BME280;65863;49.506;10.400;2023-04-20T12:44:53;97687.81;;;8.80;60.30
9423;BME280;65863;49.506;10.400;2023-04-20T12:47:38;97722.41;;;9.19;60.84
9423;BME280;65863;49.506;10.400;2023-04-20T12:50:23;97688.59;;;8.81;60.35
9423;BME280;65863;49.506;10.400;2023-04-20T12:53:07;97677.22;;;8.57;60.32
9423;BME280;65863;49.506;10.400;2023-04-20T12:55:51;97729.19;;;8.74;61.00
9423;BME280;65863;49.506;10.400;2023-04-20T12:58:35;97597.91;;;7.63;61.42
9423;BME280;65863;49.506;10.400;2023-04-20T13:01:19;97694.88;;;8.31;61.48
9423;BME280;65863;49.506;10.400;2023-04-20T13:04:03;97709.28;;;8.35;62.23
9423;BME280;65863;49.506;10.400;2023-04-20T13:06:47;97688.72;;;8.33;62.51
9423;BME280;65863;49.506;10.400;2023-04-20T13:09:31;97690.00;;;8.45;62.85
9423;BME280;65863;49.506;10.400;2023-04-20T13:12:15;97704.59;;;8.51;62.96
9423;BME280;65863;49.506;10.400;2023-04-20T13:14:59;97686.50;;;8.52;63.30
9423;BME280;65863;49.506;10.400;2023-04-20T13:17:43;97718.59;;;8.80;63.13
9423;BME280;65863;49.506;10.400;2023-04-20T13:20:27;97666.97;;;8.39;63.05
9423;BME280;65863;49.506;10.400;2023-04-20T13:23:13;97704.81;;;8.82;63.27
9423;BME280;65863;49.506;10.400;2023-04-20T13:25:56;97695.31;;;8.85;62.75
9423;BME280;65863;49.506;10.400;2023-04-20T13:28:43;97704.38;;;8.99;62.55
9423;BME280;65863;49.506;10.400;2023-04-20T13:31:28;97696.44;;;8.82;61.53
9423;BME280;65863;49.506;10.400;2023-04-20T13:34:12;97698.09;;;8.77;61.41
9423;BME280;65863;49.506;10.400;2023-04-20T13:36:56;97695.00;;;8.89;61.54
9423;BME280;65863;49.506;10.400;2023-04-20T13:39:41;97701.78;;;9.01;61.40
9423;BME280;65863;49.506;10.400;2023-04-20T13:42:24;97684.75;;;8.70;60.80
9423;BME280;65863;49.506;10.400;2023-04-20T13:45:09;97703.25;;;8.94;61.39
9423;BME280;65863;49.506;10.400;2023-04-20T13:47:53;97659.53;;;8.63;61.64
9423;BME280;65863;49.506;10.400;2023-04-20T13:50:37;97645.22;;;8.66;62.11
9423;BME280;65863;49.506;10.400;2023-04-20T13:53:21;97684.34;;;9.24;62.01
9423;BME280;65863;49.506;10.400;2023-04-20T13:56:05;97702.50;;;9.67;61.84
9423;BME280;65863;49.506;10.400;2023-04-20T13:58:49;97619.63;;;8.99;60.60
9423;BME280;65863;49.506;10.400;2023-04-20T14:01:33;97700.69;;;9.41;60.99
9423;BME280;65863;49.506;10.400;2023-04-20T14:04:17;97684.63;;;9.05;61.59
9423;BME280;65863;49.506;10.400;2023-04-20T14:07:01;97690.63;;;9.09;62.24
9423;BME280;65863;49.506;10.400;2023-04-20T14:09:45;97702.31;;;9.00;62.20
9423;BME280;65863;49.506;10.400;2023-04-20T14:12:29;97673.97;;;8.74;62.92
9423;BME280;65863;49.506;10.400;2023-04-20T14:15:13;97686.19;;;8.85;63.68
9423;BME280;65863;49.506;10.400;2023-04-20T14:17:58;97711.34;;;9.06;63.96
9423;BME280;65863;49.506;10.400;2023-04-20T14:20:42;97587.13;;;8.09;63.64
9423;BME280;65863;49.506;10.400;2023-04-20T14:23:26;97666.78;;;8.58;63.70
9423;BME280;65863;49.506;10.400;2023-04-20T14:26:11;97688.22;;;8.84;64.02
9423;BME280;65863;49.506;10.400;2023-04-20T14:28:55;97675.28;;;8.73;63.84
9423;BME280;65863;49.506;10.400;2023-04-20T14:31:39;97671.75;;;9.02;64.07
9423;BME280;65863;49.506;10.400;2023-04-20T14:34:23;97677.47;;;9.25;63.76
9423;BME280;65863;49.506;10.400;2023-04-20T14:37:07;97645.28;;;9.10;63.17
9423;BME280;65863;49.506;10.400;2023-04-20T14:39:52;97651.53;;;8.95;62.84
9423;BME280;65863;49.506;10.400;2023-04-20T14:42:36;97616.94;;;8.77;63.80
9423;BME280;65863;49.506;10.400;2023-04-20T14:45:20;97632.00;;;9.03;64.39